PRIVATE WETTERSTATION BILLIGHEIM-ALLFELD                       ZURCK
Wetterdaten: Mittwoch, 14.05.2014
Datum Zeit Temp. A. Temp. A. min Temp. A. max Feuchte A. Luftdruck Regen Wind Richtung Richtung Sonnenschein ET Solar Taupunkt Windchill Windben Empfang
14.05.2014 00:00 8,3 C 8,3 C 8,4 C 87 % 1020,2 hPa 0,0 l/m 0,0 km/h (0 Bft) N 0 0 min 0,000 mm 0 W/m 6,3 C 8,3 C 0,0 km/h (0 Bft) 98 %
14.05.2014 00:10 8,3 C 8,3 C 8,3 C 87 % 1020,3 hPa 0,0 l/m 0,0 km/h (0 Bft) N 0 0 min 0,000 mm 0 W/m 6,3 C 8,3 C 0,0 km/h (0 Bft) 97 %
14.05.2014 00:20 8,3 C 8,3 C 8,3 C 87 % 1020,4 hPa 0,0 l/m 0,0 km/h (0 Bft) NW 315 0 min 0,000 mm 0 W/m 6,3 C 8,3 C 4,8 km/h (1 Bft) 97 %
14.05.2014 00:30 8,4 C 8,3 C 8,4 C 87 % 1020,6 hPa 0,0 l/m 0,0 km/h (0 Bft) N 0 0 min 0,000 mm 0 W/m 6,4 C 8,4 C 0,0 km/h (0 Bft) 98 %
14.05.2014 00:40 8,5 C 8,4 C 8,5 C 87 % 1020,9 hPa 0,0 l/m 0,0 km/h (0 Bft) N 0 0 min 0,000 mm 0 W/m 6,5 C 8,5 C 0,0 km/h (0 Bft) 98 %
14.05.2014 00:50 8,5 C 8,4 C 8,5 C 87 % 1021,0 hPa 0,0 l/m 0,0 km/h (0 Bft) NW 315 0 min 0,000 mm 0 W/m 6,5 C 8,5 C 1,6 km/h (1 Bft) 98 %
14.05.2014 01:00 8,5 C 8,4 C 8,5 C 87 % 1021,1 hPa 0,0 l/m 0,0 km/h (0 Bft) NW 315 0 min 0,000 mm 0 W/m 6,5 C 8,5 C 1,6 km/h (1 Bft) 98 %
14.05.2014 01:10 8,5 C 8,4 C 8,5 C 87 % 1021,2 hPa 0,0 l/m 0,0 km/h (0 Bft) NW 315 0 min 0,000 mm 0 W/m 6,5 C 8,5 C 4,8 km/h (1 Bft) 98 %
14.05.2014 01:20 8,4 C 8,4 C 8,5 C 87 % 1021,3 hPa 0,0 l/m 0,0 km/h (0 Bft) NW 315 0 min 0,000 mm 0 W/m 6,4 C 8,4 C 6,4 km/h (2 Bft) 98 %
14.05.2014 01:30 8,5 C 8,4 C 8,5 C 87 % 1021,4 hPa 0,0 l/m 0,0 km/h (0 Bft) NW 315 0 min 0,000 mm 0 W/m 6,5 C 8,5 C 3,2 km/h (1 Bft) 98 %
14.05.2014 01:40 8,4 C 8,4 C 8,5 C 87 % 1021,4 hPa 0,0 l/m 0,0 km/h (0 Bft) NW 315 0 min 0,000 mm 0 W/m 6,4 C 8,4 C 4,8 km/h (1 Bft) 98 %
14.05.2014 01:50 8,4 C 8,4 C 8,4 C 87 % 1021,5 hPa 0,0 l/m 0,0 km/h (0 Bft) NW 315 0 min 0,000 mm 0 W/m 6,4 C 8,4 C 3,2 km/h (1 Bft) 97 %
14.05.2014 02:00 8,4 C 8,4 C 8,4 C 87 % 1021,5 hPa 0,0 l/m 0,0 km/h (0 Bft) NW 315 0 min 0,000 mm 0 W/m 6,4 C 8,4 C 3,2 km/h (1 Bft) 98 %
14.05.2014 02:10 8,3 C 8,3 C 8,4 C 87 % 1021,7 hPa 0,0 l/m 0,0 km/h (0 Bft) NW 315 0 min 0,000 mm 0 W/m 6,3 C 8,3 C 4,8 km/h (1 Bft) 98 %
14.05.2014 02:20 8,4 C 8,3 C 8,4 C 87 % 1021,8 hPa 0,0 l/m 0,0 km/h (0 Bft) NW 315 0 min 0,000 mm 0 W/m 6,4 C 8,4 C 3,2 km/h (1 Bft) 89 %
14.05.2014 02:30 8,3 C 8,3 C 8,3 C 87 % 1021,8 hPa 0,0 l/m 0,0 km/h (0 Bft) NW 315 0 min 0,000 mm 0 W/m 6,3 C 8,3 C 1,6 km/h (1 Bft) 97 %
14.05.2014 02:40 8,3 C 8,3 C 8,3 C 87 % 1021,8 hPa 0,0 l/m 0,0 km/h (0 Bft) NW 315 0 min 0,000 mm 0 W/m 6,3 C 8,3 C 3,2 km/h (1 Bft) 97 %
14.05.2014 02:50 8,2 C 8,2 C 8,3 C 87 % 1021,9 hPa 0,0 l/m 0,0 km/h (0 Bft) NW 315 0 min 0,000 mm 0 W/m 6,2 C 8,2 C 1,6 km/h (1 Bft) 97 %
14.05.2014 03:00 8,2 C 8,2 C 8,3 C 87 % 1021,9 hPa 0,0 l/m 0,0 km/h (0 Bft) NW 315 0 min 0,000 mm 0 W/m 6,2 C 8,2 C 4,8 km/h (1 Bft) 97 %
14.05.2014 03:10 8,1 C 8,1 C 8,2 C 88 % 1021,9 hPa 0,0 l/m 0,0 km/h (0 Bft) N 0 0 min 0,000 mm 0 W/m 6,2 C 8,1 C 0,0 km/h (0 Bft) 97 %
14.05.2014 03:20 8,1 C 8,1 C 8,1 C 87 % 1022,0 hPa 0,0 l/m 0,0 km/h (0 Bft) NW 315 0 min 0,000 mm 0 W/m 6,1 C 8,1 C 3,2 km/h (1 Bft) 97 %
14.05.2014 03:30 8,0 C 8,0 C 8,1 C 87 % 1022,1 hPa 0,0 l/m 0,0 km/h (0 Bft) NW 315 0 min 0,000 mm 0 W/m 6,0 C 8,0 C 4,8 km/h (1 Bft) 97 %
14.05.2014 03:40 7,9 C 7,9 C 8,0 C 87 % 1022,1 hPa 0,0 l/m 1,6 km/h (1 Bft) N-NW 337 0 min 0,000 mm 0 W/m 5,9 C 7,9 C 8,0 km/h (2 Bft) 98 %
14.05.2014 03:50 7,9 C 7,9 C 7,9 C 87 % 1022,2 hPa 0,0 l/m 3,2 km/h (1 Bft) N-NW 337 0 min 0,000 mm 0 W/m 5,9 C 7,9 C 8,0 km/h (2 Bft) 97 %
14.05.2014 04:00 7,9 C 7,8 C 7,9 C 88 % 1022,4 hPa 0,0 l/m 1,6 km/h (1 Bft) N-NW 337 0 min 0,000 mm 0 W/m 6,0 C 7,9 C 8,0 km/h (2 Bft) 98 %
14.05.2014 04:10 7,8 C 7,8 C 7,9 C 88 % 1022,6 hPa 0,0 l/m 1,6 km/h (1 Bft) N 360 0 min 0,000 mm 0 W/m 5,9 C 7,8 C 8,0 km/h (2 Bft) 98 %
14.05.2014 04:20 7,8 C 7,8 C 7,8 C 88 % 1022,7 hPa 0,0 l/m 1,6 km/h (1 Bft) N-NW 337 0 min 0,000 mm 0 W/m 5,9 C 7,8 C 6,4 km/h (2 Bft) 97 %
14.05.2014 04:30 7,7 C 7,7 C 7,8 C 87 % 1022,8 hPa 0,0 l/m 1,6 km/h (1 Bft) N-NW 337 0 min 0,000 mm 0 W/m 5,7 C 7,7 C 8,0 km/h (2 Bft) 98 %
14.05.2014 04:40 7,7 C 7,7 C 7,8 C 87 % 1023,0 hPa 0,0 l/m 3,2 km/h (1 Bft) N-NW 337 0 min 0,000 mm 0 W/m 5,7 C 7,7 C 14,5 km/h (3 Bft) 98 %
14.05.2014 04:50 7,7 C 7,7 C 7,7 C 87 % 1023,1 hPa 0,0 l/m 3,2 km/h (1 Bft) N-NW 337 0 min 0,000 mm 0 W/m 5,7 C 7,7 C 9,7 km/h (2 Bft) 97 %
14.05.2014 05:00 7,7 C 7,7 C 7,7 C 87 % 1023,1 hPa 0,0 l/m 1,6 km/h (1 Bft) N-NW 337 0 min 0,000 mm 0 W/m 5,7 C 7,7 C 11,3 km/h (2 Bft) 98 %
14.05.2014 05:10 7,6 C 7,6 C 7,7 C 87 % 1023,2 hPa 0,0 l/m 1,6 km/h (1 Bft) N 360 0 min 0,000 mm 0 W/m 5,6 C 7,6 C 6,4 km/h (2 Bft) 97 %
14.05.2014 05:20 7,4 C 7,4 C 7,6 C 88 % 1023,2 hPa 0,0 l/m 1,6 km/h (1 Bft) N 360 0 min 0,000 mm 0 W/m 5,5 C 7,4 C 8,0 km/h (2 Bft) 98 %
14.05.2014 05:30 7,3 C 7,3 C 7,4 C 87 % 1023,5 hPa 0,0 l/m 0,0 km/h (0 Bft) N 360 0 min 0,000 mm 0 W/m 5,3 C 7,3 C 6,4 km/h (2 Bft) 98 %
14.05.2014 05:40 6,9 C 6,9 C 7,3 C 87 % 1023,5 hPa 0,0 l/m 0,0 km/h (0 Bft) N-NW 337 0 min 0,000 mm 0 W/m 4,9 C 6,9 C 3,2 km/h (1 Bft) 98 %
14.05.2014 05:50 6,5 C 6,5 C 6,9 C 87 % 1023,6 hPa 0,0 l/m 0,0 km/h (0 Bft) N-NO 22 0 min 0,000 mm 5 W/m 4,5 C 6,5 C 3,2 km/h (1 Bft) 97 %
14.05.2014 06:00 6,2 C 6,2 C 6,5 C 88 % 1023,6 hPa 0,0 l/m 0,0 km/h (0 Bft) N-NO 22 0 min 0,000 mm 9 W/m 4,4 C 6,2 C 1,6 km/h (1 Bft) 97 %
14.05.2014 06:10 5,9 C 5,9 C 6,2 C 88 % 1023,8 hPa 0,0 l/m 0,0 km/h (0 Bft) N 360 0 min 0,000 mm 11 W/m 4,1 C 5,9 C 3,2 km/h (1 Bft) 98 %
14.05.2014 06:20 5,7 C 5,7 C 5,9 C 88 % 1023,9 hPa 0,0 l/m 0,0 km/h (0 Bft) N 360 0 min 0,000 mm 14 W/m 3,9 C 5,7 C 1,6 km/h (1 Bft) 98 %
14.05.2014 06:30 5,6 C 5,6 C 5,7 C 88 % 1024,1 hPa 0,0 l/m 0,0 km/h (0 Bft) N 360 0 min 0,000 mm 16 W/m 3,8 C 5,6 C 1,6 km/h (1 Bft) 98 %
14.05.2014 06:40 5,5 C 5,5 C 5,6 C 88 % 1024,2 hPa 0,0 l/m 0,0 km/h (0 Bft) N 360 0 min 0,000 mm 18 W/m 3,7 C 5,5 C 1,6 km/h (1 Bft) 97 %
14.05.2014 06:50 5,4 C 5,4 C 5,5 C 88 % 1024,4 hPa 0,0 l/m 0,0 km/h (0 Bft) N-NW 337 0 min 0,000 mm 19 W/m 3,6 C 5,4 C 4,8 km/h (1 Bft) 97 %
14.05.2014 07:00 5,5 C 5,4 C 5,5 C 88 % 1024,5 hPa 0,0 l/m 0,0 km/h (0 Bft) N-NW 337 0 min 0,000 mm 21 W/m 3,7 C 5,5 C 4,8 km/h (1 Bft) 98 %
14.05.2014 07:10 5,6 C 5,5 C 5,6 C 88 % 1024,7 hPa 0,0 l/m 0,0 km/h (0 Bft) N 360 0 min 0,000 mm 23 W/m 3,8 C 5,6 C 4,8 km/h (1 Bft) 97 %
14.05.2014 07:20 5,6 C 5,6 C 5,6 C 88 % 1024,8 hPa 0,0 l/m 0,0 km/h (0 Bft) N 360 0 min 0,000 mm 25 W/m 3,8 C 5,6 C 1,6 km/h (1 Bft) 98 %
14.05.2014 07:30 5,7 C 5,6 C 5,7 C 88 % 1024,8 hPa 0,0 l/m 0,0 km/h (0 Bft) N 360 0 min 0,000 mm 26 W/m 3,9 C 5,7 C 3,2 km/h (1 Bft) 98 %
14.05.2014 07:40 5,8 C 5,7 C 5,8 C 88 % 1024,9 hPa 0,0 l/m 0,0 km/h (0 Bft) N 360 0 min 0,000 mm 30 W/m 4,0 C 5,8 C 3,2 km/h (1 Bft) 98 %
14.05.2014 07:50 5,9 C 5,8 C 5,9 C 88 % 1025,0 hPa 0,0 l/m 1,6 km/h (1 Bft) NW 315 0 min 0,000 mm 32 W/m 4,1 C 5,9 C 6,4 km/h (2 Bft) 98 %
14.05.2014 08:00 6,1 C 5,9 C 6,1 C 88 % 1025,1 hPa 0,0 l/m 1,6 km/h (1 Bft) NW 315 0 min 0,025 mm 35 W/m 4,3 C 6,1 C 8,0 km/h (2 Bft) 97 %
14.05.2014 08:10 6,2 C 6,1 C 6,2 C 88 % 1025,3 hPa 0,0 l/m 3,2 km/h (1 Bft) NW 315 0 min 0,000 mm 125 W/m 4,4 C 6,2 C 9,7 km/h (2 Bft) 98 %
14.05.2014 08:20 6,6 C 6,3 C 6,6 C 88 % 1025,4 hPa 0,0 l/m 1,6 km/h (1 Bft) NW 315 0 min 0,000 mm 149 W/m 4,8 C 6,6 C 11,3 km/h (2 Bft) 97 %
14.05.2014 08:30 7,3 C 6,6 C 7,3 C 87 % 1025,6 hPa 0,0 l/m 1,6 km/h (1 Bft) NW 315 10 min 0,000 mm 369 W/m 5,3 C 7,3 C 6,4 km/h (2 Bft) 100 %
14.05.2014 08:40 8,1 C 7,3 C 8,1 C 85 % 1025,5 hPa 0,0 l/m 3,2 km/h (1 Bft) NW 315 10 min 0,000 mm 429 W/m 5,7 C 8,1 C 9,7 km/h (2 Bft) 100 %
14.05.2014 08:50 8,7 C 8,1 C 8,7 C 82 % 1025,5 hPa 0,0 l/m 6,4 km/h (2 Bft) NW 315 10 min 0,000 mm 415 W/m 5,8 C 8,7 C 16,1 km/h (3 Bft) 100 %
14.05.2014 09:00 9,6 C 8,7 C 9,6 C 81 % 1025,6 hPa 0,0 l/m 6,4 km/h (2 Bft) NW 315 10 min 0,102 mm 520 W/m 6,5 C 9,6 C 12,9 km/h (3 Bft) 100 %
14.05.2014 09:10 10,4 C 9,6 C 10,4 C 75 % 1025,7 hPa 0,0 l/m 6,4 km/h (2 Bft) NW 315 10 min 0,000 mm 538 W/m 6,2 C 10,4 C 16,1 km/h (3 Bft) 100 %
14.05.2014 09:20 11,2 C 10,4 C 11,2 C 72 % 1025,7 hPa 0,0 l/m 4,8 km/h (1 Bft) NW 315 10 min 0,000 mm 656 W/m 6,3 C 11,2 C 17,7 km/h (3 Bft) 100 %
14.05.2014 09:30 11,7 C 11,2 C 11,7 C 68 % 1025,7 hPa 0,0 l/m 6,4 km/h (2 Bft) NW 315 10 min 0,000 mm 654 W/m 6,0 C 11,7 C 20,9 km/h (4 Bft) 100 %
14.05.2014 09:40 11,1 C 11,1 C 11,7 C 66 % 1025,8 hPa 0,0 l/m 9,7 km/h (2 Bft) NW 315 10 min 0,000 mm 179 W/m 5,0 C 9,0 C 25,7 km/h (4 Bft) 100 %
14.05.2014 09:50 10,9 C 10,8 C 11,1 C 68 % 1025,9 hPa 0,0 l/m 9,7 km/h (2 Bft) NW 315 10 min 0,000 mm 631 W/m 5,2 C 8,8 C 22,5 km/h (4 Bft) 100 %
14.05.2014 10:00 11,5 C 10,8 C 11,5 C 67 % 1025,9 hPa 0,0 l/m 9,5 km/h (2 Bft) W-NW 298 10 min 0,000 mm 686 W/m 5,6 C 9,5 C 24,1 km/h (4 Bft) 97 %
14.05.2014 10:10 12,1 C 11,5 C 12,1 C 66 % 1026,0 hPa 0,0 l/m 9,1 km/h (2 Bft) N-NW 327 10 min 0,254 mm 733 W/m 5,9 C 10,4 C 24,1 km/h (4 Bft) 97 %
14.05.2014 10:20 12,4 C 12,1 C 12,4 C 61 % 1025,9 hPa 0,0 l/m 5,3 km/h (1 Bft) NW 319 10 min 0,000 mm 874 W/m 5,1 C 12,4 C 19,3 km/h (3 Bft) 98 %
14.05.2014 10:30 12,4 C 12,3 C 12,5 C 63 % 1025,9 hPa 0,0 l/m 8,3 km/h (2 Bft) W-NW 296 10 min 0,000 mm 237 W/m 5,6 C 11,2 C 24,1 km/h (4 Bft) 98 %
14.05.2014 10:40 12,6 C 12,4 C 12,6 C 64 % 1026,1 hPa 0,0 l/m 7,1 km/h (2 Bft) N-NW 328 10 min 0,000 mm 888 W/m 6,0 C 12,2 C 16,1 km/h (3 Bft) 97 %
14.05.2014 10:50 12,5 C 12,5 C 12,8 C 58 % 1026,2 hPa 0,0 l/m 11,2 km/h (2 Bft) W-NW 300 10 min 0,000 mm 835 W/m 4,5 C 9,8 C 25,7 km/h (4 Bft) 98 %
14.05.2014 11:00 12,6 C 12,3 C 12,6 C 61 % 1026,2 hPa 0,0 l/m 7,7 km/h (2 Bft) N 360 10 min 0,330 mm 912 W/m 5,3 C 11,8 C 22,5 km/h (4 Bft) 98 %
14.05.2014 11:10 13,1 C 12,6 C 13,1 C 62 % 1026,4 hPa 0,0 l/m 9,3 km/h (2 Bft) N 355 10 min 0,000 mm 940 W/m 6,0 C 11,4 C 25,7 km/h (4 Bft) 98 %
14.05.2014 11:20 12,8 C 12,8 C 13,2 C 57 % 1026,5 hPa 0,0 l/m 11,7 km/h (2 Bft) W-NW 301 10 min 0,000 mm 294 W/m 4,5 C 9,9 C 22,5 km/h (4 Bft) 99 %
14.05.2014 11:30 12,2 C 12,1 C 12,8 C 61 % 1026,5 hPa 0,0 l/m 11,6 km/h (2 Bft) NW 317 10 min 0,000 mm 969 W/m 4,9 C 9,2 C 24,1 km/h (4 Bft) 100 %
14.05.2014 11:40 12,4 C 12,2 C 12,4 C 59 % 1026,7 hPa 0,0 l/m 9,0 km/h (2 Bft) NW 307 10 min 0,000 mm 269 W/m 4,6 C 10,8 C 22,5 km/h (4 Bft) 100 %
14.05.2014 11:50 12,9 C 12,4 C 12,9 C 58 % 1026,6 hPa 0,0 l/m 8,3 km/h (2 Bft) NW 309 10 min 0,000 mm 413 W/m 4,8 C 11,7 C 25,7 km/h (4 Bft) 100 %
14.05.2014 12:00 13,1 C 12,9 C 13,1 C 58 % 1026,5 hPa 0,0 l/m 9,7 km/h (2 Bft) N-NW 328 10 min 0,330 mm 308 W/m 5,0 C 11,2 C 19,3 km/h (3 Bft) 100 %
14.05.2014 12:10 12,8 C 12,8 C 13,1 C 56 % 1026,7 hPa 0,0 l/m 7,6 km/h (2 Bft) NW 308 10 min 0,000 mm 290 W/m 4,2 C 12,0 C 19,3 km/h (3 Bft) 100 %
14.05.2014 12:20 12,8 C 12,7 C 12,8 C 58 % 1026,7 hPa 0,0 l/m 8,8 km/h (2 Bft) NW 314 10 min 0,000 mm 898 W/m 4,7 C 11,3 C 20,9 km/h (4 Bft) 100 %
14.05.2014 12:30 13,4 C 12,8 C 13,4 C 57 % 1026,7 hPa 0,0 l/m 6,9 km/h (2 Bft) W-NW 300 10 min 0,000 mm 1167 W/m 5,1 C 13,1 C 19,3 km/h (3 Bft) 100 %
14.05.2014 12:40 13,4 C 13,4 C 13,7 C 56 % 1026,8 hPa 0,0 l/m 10,2 km/h (2 Bft) NW 304 10 min 0,000 mm 278 W/m 4,8 C 11,3 C 27,4 km/h (4 Bft) 100 %
14.05.2014 12:50 13,1 C 13,1 C 13,4 C 57 % 1026,9 hPa 0,0 l/m 7,3 km/h (2 Bft) NW 308 10 min 0,000 mm 353 W/m 4,8 C 12,5 C 20,9 km/h (4 Bft) 100 %
14.05.2014 13:00 13,3 C 13,1 C 13,3 C 53 % 1026,7 hPa 0,0 l/m 9,1 km/h (2 Bft) NW 309 10 min 0,305 mm 288 W/m 3,9 C 11,7 C 20,9 km/h (4 Bft) 100 %
14.05.2014 13:10 13,4 C 13,3 C 13,4 C 55 % 1026,8 hPa 0,0 l/m 8,1 km/h (2 Bft) NW 311 10 min 0,000 mm 380 W/m 4,5 C 12,4 C 17,7 km/h (3 Bft) 100 %
14.05.2014 13:20 13,4 C 13,4 C 13,5 C 53 % 1026,9 hPa 0,0 l/m 7,9 km/h (2 Bft) NW 319 10 min 0,000 mm 332 W/m 4,0 C 12,5 C 22,5 km/h (4 Bft) 100 %
14.05.2014 13:30 13,4 C 13,3 C 13,4 C 55 % 1026,8 hPa 0,0 l/m 7,0 km/h (2 Bft) NW 315 10 min 0,000 mm 322 W/m 4,5 C 13,0 C 17,7 km/h (3 Bft) 100 %
14.05.2014 13:40 13,3 C 13,3 C 13,5 C 55 % 1026,8 hPa 0,0 l/m 10,3 km/h (2 Bft) NW 323 10 min 0,000 mm 1155 W/m 4,5 C 11,1 C 24,1 km/h (4 Bft) 100 %
14.05.2014 13:50 13,7 C 13,3 C 13,7 C 57 % 1026,8 hPa 0,0 l/m 7,7 km/h (2 Bft) NW 325 10 min 0,000 mm 366 W/m 5,3 C 12,9 C 22,5 km/h (4 Bft) 100 %
14.05.2014 14:00 13,8 C 13,7 C 13,8 C 53 % 1026,9 hPa 0,0 l/m 7,7 km/h (2 Bft) N-NW 332 10 min 0,280 mm 216 W/m 4,4 C 13,0 C 24,1 km/h (4 Bft) 100 %
14.05.2014 14:10 13,4 C 13,4 C 13,8 C 57 % 1026,7 hPa 0,0 l/m 7,2 km/h (2 Bft) NW 318 10 min 0,000 mm 276 W/m 5,1 C 12,9 C 14,5 km/h (3 Bft) 92 %
14.05.2014 14:20 14,0 C 13,4 C 14,0 C 51 % 1026,7 hPa 0,0 l/m 7,2 km/h (2 Bft) NW 309 10 min 0,000 mm 213 W/m 4,0 C 13,5 C 17,7 km/h (3 Bft) 98 %
14.05.2014 14:30 14,2 C 14,0 C 14,2 C 54 % 1026,5 hPa 0,0 l/m 7,0 km/h (2 Bft) NW 315 10 min 0,000 mm 334 W/m 5,0 C 13,8 C 16,1 km/h (3 Bft) 100 %
14.05.2014 14:40 14,6 C 14,2 C 14,6 C 52 % 1026,5 hPa 0,0 l/m 5,2 km/h (1 Bft) N 349 10 min 0,000 mm 1035 W/m 4,9 C 14,6 C 17,7 km/h (3 Bft) 100 %
14.05.2014 14:50 14,8 C 14,6 C 14,8 C 52 % 1026,5 hPa 0,0 l/m 7,8 km/h (2 Bft) NW 317 10 min 0,000 mm 258 W/m 5,0 C 14,0 C 19,3 km/h (3 Bft) 100 %
14.05.2014 15:00 15,1 C 14,8 C 15,1 C 54 % 1026,4 hPa 0,0 l/m 6,1 km/h (2 Bft) NW 326 10 min 0,355 mm 856 W/m 5,9 C 15,1 C 14,5 km/h (3 Bft) 99 %
14.05.2014 15:10 15,1 C 15,1 C 15,1 C 53 % 1026,4 hPa 0,0 l/m 10,3 km/h (2 Bft) NW 326 10 min 0,000 mm 940 W/m 5,6 C 13,1 C 27,4 km/h (4 Bft) 100 %
14.05.2014 15:20 15,7 C 15,1 C 15,7 C 51 % 1026,3 hPa 0,0 l/m 12,9 km/h (3 Bft) NW 325 10 min 0,000 mm 925 W/m 5,6 C 12,7 C 29,0 km/h (5 Bft) 100 %
14.05.2014 15:30 15,9 C 15,7 C 15,9 C 50 % 1026,2 hPa 0,0 l/m 11,8 km/h (2 Bft) N-NW 336 10 min 0,000 mm 909 W/m 5,5 C 13,4 C 19,3 km/h (3 Bft) 100 %
14.05.2014 15:40 15,7 C 15,7 C 16,0 C 48 % 1026,3 hPa 0,0 l/m 10,7 km/h (2 Bft) NW 311 10 min 0,000 mm 624 W/m 4,7 C 13,6 C 20,9 km/h (4 Bft) 100 %
14.05.2014 15:50 15,1 C 15,1 C 15,7 C 50 % 1026,3 hPa 0,0 l/m 9,8 km/h (2 Bft) NW 306 10 min 0,000 mm 246 W/m 4,8 C 13,3 C 22,5 km/h (4 Bft) 100 %
14.05.2014 16:00 15,1 C 15,1 C 15,1 C 50 % 1026,3 hPa 0,0 l/m 9,5 km/h (2 Bft) W-NW 285 10 min 0,381 mm 301 W/m 4,8 C 13,5 C 22,5 km/h (4 Bft) 100 %
14.05.2014 16:10 14,8 C 14,8 C 15,1 C 50 % 1026,3 hPa 0,0 l/m 12,2 km/h (2 Bft) W 261 10 min 0,000 mm 390 W/m 4,5 C 12,0 C 20,9 km/h (4 Bft) 100 %
14.05.2014 16:20 14,9 C 14,8 C 15,0 C 49 % 1026,2 hPa 0,0 l/m 9,1 km/h (2 Bft) W-NW 292 10 min 0,000 mm 211 W/m 4,3 C 13,4 C 17,7 km/h (3 Bft) 100 %
14.05.2014 16:30 14,4 C 14,4 C 14,9 C 53 % 1026,1 hPa 0,0 l/m 10,1 km/h (2 Bft) N-NW 344 10 min 0,000 mm 343 W/m 4,9 C 12,4 C 20,9 km/h (4 Bft) 100 %
14.05.2014 16:40 14,5 C 14,4 C 14,6 C 51 % 1026,1 hPa 0,0 l/m 8,1 km/h (2 Bft) NW 316 10 min 0,000 mm 332 W/m 4,5 C 13,5 C 17,7 km/h (3 Bft) 100 %
14.05.2014 16:50 15,1 C 14,5 C 15,1 C 52 % 1026,0 hPa 0,0 l/m 6,7 km/h (2 Bft) NW 319 10 min 0,000 mm 735 W/m 5,3 C 14,9 C 14,5 km/h (3 Bft) 100 %
14.05.2014 17:00 15,3 C 15,1 C 15,3 C 52 % 1026,0 hPa 0,0 l/m 8,8 km/h (2 Bft) NW 315 10 min 0,000 mm 200 W/m 5,5 C 14,0 C 19,3 km/h (3 Bft) 100 %
14.05.2014 17:10 15,1 C 15,1 C 15,3 C 51 % 1026,0 hPa 0,0 l/m 8,8 km/h (2 Bft) NW 323 10 min 0,279 mm 185 W/m 5,0 C 13,8 C 17,7 km/h (3 Bft) 100 %
14.05.2014 17:20 15,3 C 15,1 C 15,3 C 50 % 1025,9 hPa 0,0 l/m 9,1 km/h (2 Bft) NW 320 10 min 0,001 mm 422 W/m 4,9 C 13,9 C 20,9 km/h (4 Bft) 100 %
14.05.2014 17:30 15,3 C 15,3 C 15,4 C 53 % 1025,8 hPa 0,0 l/m 6,4 km/h (2 Bft) N-NW 338 0 min 0,000 mm 146 W/m 5,8 C 15,3 C 19,3 km/h (3 Bft) 100 %
14.05.2014 17:40 15,1 C 15,1 C 15,3 C 49 % 1025,9 hPa 0,0 l/m 5,9 km/h (2 Bft) W-NW 289 10 min 0,000 mm 325 W/m 4,5 C 15,1 C 17,7 km/h (3 Bft) 100 %
14.05.2014 17:50 15,4 C 15,1 C 15,4 C 48 % 1025,7 hPa 0,0 l/m 9,4 km/h (2 Bft) W-NW 292 10 min 0,000 mm 448 W/m 4,4 C 13,8 C 20,9 km/h (4 Bft) 100 %
14.05.2014 18:00 15,5 C 15,4 C 15,6 C 49 % 1025,8 hPa 0,0 l/m 12,2 km/h (2 Bft) W-NW 291 10 min 0,000 mm 232 W/m 4,8 C 12,8 C 24,1 km/h (4 Bft) 100 %
14.05.2014 18:10 15,4 C 15,4 C 15,5 C 48 % 1025,9 hPa 0,0 l/m 9,2 km/h (2 Bft) NW 319 10 min 0,203 mm 241 W/m 4,4 C 13,9 C 20,9 km/h (4 Bft) 100 %
14.05.2014 18:20 15,1 C 15,1 C 15,4 C 48 % 1025,9 hPa 0,0 l/m 8,5 km/h (2 Bft) NW 311 0 min 0,000 mm 72 W/m 4,2 C 13,9 C 16,1 km/h (3 Bft) 91 %
14.05.2014 18:30 14,4 C 14,4 C 15,1 C 50 % 1025,9 hPa 0,0 l/m 5,2 km/h (1 Bft) NW 310 0 min 0,000 mm 104 W/m 4,1 C 14,4 C 16,1 km/h (3 Bft) 100 %
14.05.2014 18:40 14,3 C 14,3 C 14,4 C 55 % 1025,9 hPa 0,0 l/m 3,2 km/h (1 Bft) N-NW 348 10 min 0,000 mm 264 W/m 5,4 C 14,3 C 9,7 km/h (2 Bft) 100 %
14.05.2014 18:50 14,3 C 14,2 C 14,3 C 54 % 1025,8 hPa 0,0 l/m 3,1 km/h (1 Bft) N-NW 335 10 min 0,000 mm 190 W/m 5,1 C 14,3 C 11,3 km/h (2 Bft) 100 %
14.05.2014 19:00 14,4 C 14,2 C 14,4 C 53 % 1025,8 hPa 0,0 l/m 7,4 km/h (2 Bft) N-NW 329 10 min 0,000 mm 272 W/m 4,9 C 13,8 C 19,3 km/h (3 Bft) 100 %
14.05.2014 19:10 14,4 C 14,4 C 14,5 C 52 % 1025,9 hPa 0,0 l/m 5,9 km/h (2 Bft) W-NW 298 0 min 0,152 mm 58 W/m 4,7 C 14,4 C 19,3 km/h (3 Bft) 100 %
14.05.2014 19:20 14,3 C 14,3 C 14,4 C 48 % 1025,8 hPa 0,0 l/m 10,3 km/h (2 Bft) NW 304 0 min 0,000 mm 54 W/m 3,4 C 12,2 C 20,9 km/h (4 Bft) 100 %
14.05.2014 19:30 14,2 C 14,2 C 14,3 C 49 % 1025,9 hPa 0,0 l/m 10,7 km/h (2 Bft) N-NW 336 0 min 0,000 mm 63 W/m 3,6 C 11,9 C 25,7 km/h (4 Bft) 100 %
14.05.2014 19:40 13,9 C 13,9 C 14,2 C 50 % 1025,9 hPa 0,0 l/m 7,5 km/h (2 Bft) NW 321 0 min 0,000 mm 90 W/m 3,7 C 13,2 C 17,7 km/h (3 Bft) 100 %
14.05.2014 19:50 13,7 C 13,7 C 13,9 C 50 % 1025,9 hPa 0,0 l/m 7,9 km/h (2 Bft) N-NW 333 0 min 0,000 mm 35 W/m 3,5 C 12,8 C 17,7 km/h (3 Bft) 100 %
14.05.2014 20:00 13,4 C 13,4 C 13,7 C 52 % 1026,0 hPa 0,0 l/m 3,5 km/h (1 Bft) NW 313 0 min 0,000 mm 26 W/m 3,7 C 13,4 C 11,3 km/h (2 Bft) 100 %
14.05.2014 20:10 13,0 C 13,0 C 13,4 C 52 % 1026,0 hPa 0,0 l/m 1,1 km/h (1 Bft) NW 311 0 min 0,102 mm 23 W/m 3,4 C 13,0 C 9,7 km/h (2 Bft) 99 %
14.05.2014 20:20 12,6 C 12,6 C 13,0 C 56 % 1026,3 hPa 0,0 l/m 0,0 km/h (0 Bft) NW 311 0 min 0,000 mm 19 W/m 4,1 C 12,6 C 1,6 km/h (1 Bft) 100 %
14.05.2014 20:30 12,2 C 12,2 C 12,6 C 56 % 1026,2 hPa 0,0 l/m 0,5 km/h (0 Bft) W-NW 303 0 min 0,000 mm 12 W/m 3,7 C 12,2 C 8,0 km/h (2 Bft) 100 %
14.05.2014 20:40 11,9 C 11,9 C 12,2 C 60 % 1026,3 hPa 0,0 l/m 1,6 km/h (1 Bft) NW 321 0 min 0,000 mm 7 W/m 4,4 C 11,9 C 8,0 km/h (2 Bft) 100 %
14.05.2014 20:50 11,7 C 11,7 C 11,9 C 63 % 1026,4 hPa 0,0 l/m 0,9 km/h (0 Bft) N 350 0 min 0,000 mm 0 W/m 4,9 C 11,7 C 6,4 km/h (2 Bft) 100 %
14.05.2014 21:00 11,1 C 11,1 C 11,7 C 67 % 1026,4 hPa 0,0 l/m 0,0 km/h (0 Bft) N 350 0 min 0,000 mm 0 W/m 5,2 C 11,1 C 1,6 km/h (1 Bft) 100 %
14.05.2014 21:10 10,4 C 10,4 C 11,1 C 71 % 1026,7 hPa 0,0 l/m 0,0 km/h (0 Bft) N 360 0 min 0,000 mm 0 W/m 5,4 C 10,4 C 3,2 km/h (1 Bft) 100 %
14.05.2014 21:20 10,0 C 10,0 C 10,4 C 73 % 1026,9 hPa 0,0 l/m 0,0 km/h (0 Bft) N 360 0 min 0,000 mm 0 W/m 5,4 C 10,0 C 1,6 km/h (1 Bft) 100 %
14.05.2014 21:30 9,6 C 9,6 C 10,0 C 76 % 1027,0 hPa 0,0 l/m 0,0 km/h (0 Bft) N 360 0 min 0,000 mm 0 W/m 5,6 C 9,6 C 1,6 km/h (1 Bft) 100 %
14.05.2014 21:40 9,3 C 9,3 C 9,6 C 74 % 1027,1 hPa 0,0 l/m 0,0 km/h (0 Bft) N 360 0 min 0,000 mm 0 W/m 4,9 C 9,3 C 1,6 km/h (1 Bft) 100 %
14.05.2014 21:50 9,3 C 9,3 C 9,4 C 77 % 1027,2 hPa 0,0 l/m 0,0 km/h (0 Bft) N 0 0 min 0,000 mm 0 W/m 5,5 C 9,3 C 0,0 km/h (0 Bft) 100 %
14.05.2014 22:00 9,2 C 9,2 C 9,3 C 78 % 1027,2 hPa 0,0 l/m 0,0 km/h (0 Bft) N 360 0 min 0,000 mm 0 W/m 5,6 C 9,2 C 4,8 km/h (1 Bft) 100 %
14.05.2014 22:10 9,1 C 9,1 C 9,2 C 75 % 1027,3 hPa 0,0 l/m 0,0 km/h (0 Bft) SO 135 0 min 0,000 mm 0 W/m 4,9 C 9,1 C 1,6 km/h (1 Bft) 100 %
14.05.2014 22:20 9,2 C 9,1 C 9,2 C 75 % 1027,3 hPa 0,0 l/m 0,0 km/h (0 Bft) SO 135 0 min 0,000 mm 0 W/m 5,0 C 9,2 C 1,6 km/h (1 Bft) 100 %
14.05.2014 22:30 9,2 C 9,2 C 9,2 C 75 % 1027,2 hPa 0,0 l/m 0,0 km/h (0 Bft) SO 135 0 min 0,000 mm 0 W/m 5,0 C 9,2 C 1,6 km/h (1 Bft) 100 %
14.05.2014 22:40 9,3 C 9,2 C 9,3 C 74 % 1027,4 hPa 0,0 l/m 0,0 km/h (0 Bft) N 0 0 min 0,000 mm 0 W/m 4,9 C 9,3 C 0,0 km/h (0 Bft) 100 %
14.05.2014 22:50 9,3 C 9,3 C 9,3 C 75 % 1027,5 hPa 0,0 l/m 0,0 km/h (0 Bft) N-NW 337 0 min 0,000 mm 0 W/m 5,1 C 9,3 C 4,8 km/h (1 Bft) 99 %
14.05.2014 23:00 9,3 C 9,3 C 9,3 C 74 % 1027,6 hPa 0,0 l/m 1,6 km/h (1 Bft) N-NW 337 0 min 0,025 mm 0 W/m 4,9 C 9,3 C 16,1 km/h (3 Bft) 99 %
14.05.2014 23:10 9,3 C 9,3 C 9,3 C 74 % 1027,7 hPa 0,0 l/m 4,8 km/h (1 Bft) N-NW 337 0 min 0,000 mm 0 W/m 4,9 C 9,3 C 14,5 km/h (3 Bft) 88 %
14.05.2014 23:20 9,4 C 9,3 C 9,5 C 75 % 1027,7 hPa 0,0 l/m 8,0 km/h (2 Bft) NW 315 0 min 0,000 mm 0 W/m 5,2 C 8,2 C 20,9 km/h (4 Bft) 98 %
14.05.2014 23:30 9,5 C 9,5 C 9,5 C 77 % 1027,8 hPa 0,0 l/m 8,0 km/h (2 Bft) N-NW 337 0 min 0,000 mm 0 W/m 5,7 C 8,3 C 24,1 km/h (4 Bft) 98 %
14.05.2014 23:40 9,3 C 9,3 C 9,5 C 80 % 1028,1 hPa 0,0 l/m 3,2 km/h (1 Bft) N-NW 337 0 min 0,000 mm 0 W/m 6,0 C 9,3 C 24,1 km/h (4 Bft) 98 %
14.05.2014 23:50 9,1 C 9,1 C 9,3 C 82 % 1028,2 hPa 0,0 l/m 0,0 km/h (0 Bft) N-NW 337 0 min 0,000 mm 0 W/m 6,2 C 9,1 C 4,8 km/h (1 Bft) 97 %
_ Min-Zeit 06:50 06:50 06:50 15:40 00:00 - 00:00 - - - - - 20:10 06:50 00:00 23:10
Minimum _ 5,4 C 5,4 C 5,5 C 48 % 1020,2 hPa - 0,0 km/h (0 Bft) - - - - - 3,4 C 5,4 C 0,0 km/h (0 Bft) 88 %
_ Max-Zeit 15:40 15:30 15:40 03:10 23:50 00:00 15:20 - - 08:30 16:00 12:30 09:00 17:30 15:20 09:00
Maximum _ 16,0 C 15,7 C 16,0 C 88 % 1028,2 hPa 0,0 l/m 12,9 km/h
NW (3 Bft)
- - 10 min 0,381 mm 1167 W/m 6,5 C 15,3 C 29,0 km/h
W (5 Bft)
100 %
Durchschnitt _ 10,8 C 10,7 C 10,9 C 70 % 1025,1 hPa #0,0 l/m 4,3 km/h (1 Bft) NW - #10:10 h #3,124 mm 353 W/m 5,1 C 10,2 C 12,4 km/h (3 Bft) 99 %
PRIVATE WETTERSTATION BILLIGHEIM-ALLFELD - www.neckar-odenwald-wetter.de - Holger Sonntag